sensor_id;sensor_type;location;lat;lon;timestamp;P1;durP1;ratioP1;P2;durP2;ratioP2
42338;SDS011;27993;45.392;10.918;2024-02-15T00:00:58;27.92;;;9.30;;
42338;SDS011;27993;45.392;10.918;2024-02-15T00:03:30;29.48;;;9.38;;
42338;SDS011;27993;45.392;10.918;2024-02-15T00:06:01;24.67;;;9.02;;
42338;SDS011;27993;45.392;10.918;2024-02-15T00:08:32;19.37;;;10.33;;
42338;SDS011;27993;45.392;10.918;2024-02-15T00:11:04;25.45;;;10.27;;
42338;SDS011;27993;45.392;10.918;2024-02-15T00:13:35;22.63;;;9.30;;
42338;SDS011;27993;45.392;10.918;2024-02-15T00:16:07;25.65;;;9.63;;
42338;SDS011;27993;45.392;10.918;2024-02-15T00:18:38;20.40;;;9.83;;
42338;SDS011;27993;45.392;10.918;2024-02-15T00:21:09;18.65;;;8.98;;
42338;SDS011;27993;45.392;10.918;2024-02-15T00:23:41;18.92;;;10.25;;
42338;SDS011;27993;45.392;10.918;2024-02-15T00:26:12;17.90;;;9.10;;
42338;SDS011;27993;45.392;10.918;2024-02-15T00:28:43;21.07;;;9.33;;
42338;SDS011;27993;45.392;10.918;2024-02-15T00:31:14;20.07;;;10.27;;
42338;SDS011;27993;45.392;10.918;2024-02-15T00:33:45;13.23;;;8.17;;
42338;SDS011;27993;45.392;10.918;2024-02-15T00:36:16;24.37;;;9.00;;
42338;SDS011;27993;45.392;10.918;2024-02-15T00:38:48;29.35;;;11.20;;
42338;SDS011;27993;45.392;10.918;2024-02-15T00:41:18;25.57;;;10.73;;
42338;SDS011;27993;45.392;10.918;2024-02-15T00:43:51;18.60;;;7.75;;
42338;SDS011;27993;45.392;10.918;2024-02-15T00:46:22;13.07;;;7.40;;
42338;SDS011;27993;45.392;10.918;2024-02-15T00:48:53;12.23;;;7.23;;
42338;SDS011;27993;45.392;10.918;2024-02-15T00:51:24;13.52;;;8.20;;
42338;SDS011;27993;45.392;10.918;2024-02-15T00:53:55;15.97;;;7.93;;
42338;SDS011;27993;45.392;10.918;2024-02-15T00:56:26;17.07;;;9.33;;
42338;SDS011;27993;45.392;10.918;2024-02-15T00:58:59;19.30;;;8.60;;
42338;SDS011;27993;45.392;10.918;2024-02-15T01:01:30;18.37;;;8.63;;
42338;SDS011;27993;45.392;10.918;2024-02-15T01:04:02;17.12;;;10.43;;
42338;SDS011;27993;45.392;10.918;2024-02-15T01:06:33;20.50;;;10.47;;
42338;SDS011;27993;45.392;10.918;2024-02-15T01:09:04;19.50;;;9.27;;
42338;SDS011;27993;45.392;10.918;2024-02-15T01:11:35;14.98;;;9.02;;
42338;SDS011;27993;45.392;10.918;2024-02-15T01:14:07;20.52;;;8.80;;
42338;SDS011;27993;45.392;10.918;2024-02-15T01:16:39;17.98;;;9.30;;
42338;SDS011;27993;45.392;10.918;2024-02-15T01:19:10;16.27;;;7.67;;
42338;SDS011;27993;45.392;10.918;2024-02-15T01:21:41;16.07;;;7.97;;
42338;SDS011;27993;45.392;10.918;2024-02-15T01:24:14;12.23;;;7.53;;
42338;SDS011;27993;45.392;10.918;2024-02-15T01:26:45;27.15;;;8.43;;
42338;SDS011;27993;45.392;10.918;2024-02-15T01:29:18;15.07;;;8.82;;
42338;SDS011;27993;45.392;10.918;2024-02-15T01:31:49;13.63;;;7.03;;
42338;SDS011;27993;45.392;10.918;2024-02-15T01:34:20;12.67;;;7.33;;
42338;SDS011;27993;45.392;10.918;2024-02-15T01:36:51;17.62;;;6.60;;
42338;SDS011;27993;45.392;10.918;2024-02-15T01:39:22;13.23;;;8.27;;
42338;SDS011;27993;45.392;10.918;2024-02-15T01:41:53;14.47;;;6.90;;
42338;SDS011;27993;45.392;10.918;2024-02-15T01:44:26;20.88;;;7.40;;
42338;SDS011;27993;45.392;10.918;2024-02-15T01:46:57;11.10;;;6.53;;
42338;SDS011;27993;45.392;10.918;2024-02-15T01:49:28;14.25;;;7.57;;
42338;SDS011;27993;45.392;10.918;2024-02-15T01:52:00;14.43;;;6.83;;
42338;SDS011;27993;45.392;10.918;2024-02-15T01:54:31;11.60;;;6.43;;
42338;SDS011;27993;45.392;10.918;2024-02-15T01:57:03;17.75;;;8.23;;
42338;SDS011;27993;45.392;10.918;2024-02-15T01:59:34;17.17;;;6.90;;
42338;SDS011;27993;45.392;10.918;2024-02-15T02:02:08;16.87;;;7.47;;
42338;SDS011;27993;45.392;10.918;2024-02-15T02:04:39;19.90;;;7.57;;
42338;SDS011;27993;45.392;10.918;2024-02-15T02:09:42;21.17;;;8.63;;
42338;SDS011;27993;45.392;10.918;2024-02-15T02:12:15;17.48;;;8.23;;
42338;SDS011;27993;45.392;10.918;2024-02-15T02:14:46;18.95;;;8.65;;
42338;SDS011;27993;45.392;10.918;2024-02-15T02:17:17;17.93;;;9.07;;
42338;SDS011;27993;45.392;10.918;2024-02-15T02:19:50;20.60;;;8.82;;
42338;SDS011;27993;45.392;10.918;2024-02-15T02:22:21;21.17;;;8.57;;
42338;SDS011;27993;45.392;10.918;2024-02-15T02:27:23;14.55;;;9.40;;
42338;SDS011;27993;45.392;10.918;2024-02-15T02:29:54;15.93;;;7.95;;
42338;SDS011;27993;45.392;10.918;2024-02-15T02:32:27;27.40;;;10.57;;
42338;SDS011;27993;45.392;10.918;2024-02-15T02:34:58;24.30;;;12.23;;
42338;SDS011;27993;45.392;10.918;2024-02-15T02:37:29;18.77;;;10.53;;
42338;SDS011;27993;45.392;10.918;2024-02-15T02:40:00;23.55;;;9.77;;
42338;SDS011;27993;45.392;10.918;2024-02-15T02:42:31;22.70;;;10.03;;
42338;SDS011;27993;45.392;10.918;2024-02-15T02:45:02;18.15;;;8.95;;
42338;SDS011;27993;45.392;10.918;2024-02-15T02:47:35;27.17;;;11.10;;
42338;SDS011;27993;45.392;10.918;2024-02-15T02:50:06;20.88;;;10.07;;
42338;SDS011;27993;45.392;10.918;2024-02-15T02:52:38;24.90;;;11.20;;
42338;SDS011;27993;45.392;10.918;2024-02-15T02:55:09;26.80;;;9.93;;
42338;SDS011;27993;45.392;10.918;2024-02-15T02:57:41;15.95;;;8.70;;
42338;SDS011;27993;45.392;10.918;2024-02-15T03:00:13;21.00;;;8.95;;
42338;SDS011;27993;45.392;10.918;2024-02-15T03:02:46;20.95;;;9.15;;
42338;SDS011;27993;45.392;10.918;2024-02-15T03:05:18;18.37;;;9.35;;
42338;SDS011;27993;45.392;10.918;2024-02-15T03:07:50;18.35;;;8.82;;
42338;SDS011;27993;45.392;10.918;2024-02-15T03:10:22;22.20;;;10.00;;
42338;SDS011;27993;45.392;10.918;2024-02-15T03:12:54;29.45;;;10.38;;
42338;SDS011;27993;45.392;10.918;2024-02-15T03:15:25;24.13;;;11.00;;
42338;SDS011;27993;45.392;10.918;2024-02-15T03:17:56;19.55;;;8.40;;
42338;SDS011;27993;45.392;10.918;2024-02-15T03:20:27;17.25;;;8.80;;
42338;SDS011;27993;45.392;10.918;2024-02-15T03:22:59;13.68;;;7.43;;
42338;SDS011;27993;45.392;10.918;2024-02-15T03:25:30;17.25;;;8.57;;
42338;SDS011;27993;45.392;10.918;2024-02-15T03:28:01;23.80;;;9.37;;
42338;SDS011;27993;45.392;10.918;2024-02-15T03:30:35;19.65;;;9.18;;
42338;SDS011;27993;45.392;10.918;2024-02-15T03:33:06;18.10;;;10.50;;
42338;SDS011;27993;45.392;10.918;2024-02-15T03:35:37;24.02;;;10.48;;
42338;SDS011;27993;45.392;10.918;2024-02-15T03:38:08;16.52;;;10.30;;
42338;SDS011;27993;45.392;10.918;2024-02-15T03:40:39;17.67;;;9.10;;
42338;SDS011;27993;45.392;10.918;2024-02-15T03:43:10;21.70;;;9.97;;
42338;SDS011;27993;45.392;10.918;2024-02-15T03:45:41;24.52;;;11.10;;
42338;SDS011;27993;45.392;10.918;2024-02-15T03:48:14;16.27;;;10.43;;
42338;SDS011;27993;45.392;10.918;2024-02-15T03:50:45;17.13;;;8.90;;
42338;SDS011;27993;45.392;10.918;2024-02-15T03:53:18;18.48;;;9.68;;
42338;SDS011;27993;45.392;10.918;2024-02-15T03:55:49;31.15;;;9.73;;
42338;SDS011;27993;45.392;10.918;2024-02-15T03:58:23;19.85;;;9.55;;
42338;SDS011;27993;45.392;10.918;2024-02-15T04:00:54;26.60;;;10.73;;
42338;SDS011;27993;45.392;10.918;2024-02-15T04:03:26;19.52;;;10.02;;
42338;SDS011;27993;45.392;10.918;2024-02-15T04:05:57;24.50;;;10.73;;
42338;SDS011;27993;45.392;10.918;2024-02-15T04:08:30;18.50;;;9.98;;
42338;SDS011;27993;45.392;10.918;2024-02-15T04:11:01;18.60;;;10.15;;
42338;SDS011;27993;45.392;10.918;2024-02-15T04:13:32;17.90;;;10.00;;
42338;SDS011;27993;45.392;10.918;2024-02-15T04:16:03;17.62;;;8.50;;
42338;SDS011;27993;45.392;10.918;2024-02-15T04:18:34;18.05;;;10.18;;
42338;SDS011;27993;45.392;10.918;2024-02-15T04:21:05;18.87;;;9.63;;
42338;SDS011;27993;45.392;10.918;2024-02-15T04:23:37;18.45;;;9.52;;
42338;SDS011;27993;45.392;10.918;2024-02-15T04:28:43;17.67;;;8.90;;
42338;SDS011;27993;45.392;10.918;2024-02-15T04:31:17;20.70;;;9.52;;
42338;SDS011;27993;45.392;10.918;2024-02-15T04:33:48;16.12;;;8.43;;
42338;SDS011;27993;45.392;10.918;2024-02-15T04:36:20;28.27;;;8.75;;
42338;SDS011;27993;45.392;10.918;2024-02-15T04:38:53;15.80;;;8.60;;
42338;SDS011;27993;45.392;10.918;2024-02-15T04:41:24;16.73;;;9.27;;
42338;SDS011;27993;45.392;10.918;2024-02-15T04:43:55;17.67;;;10.10;;
42338;SDS011;27993;45.392;10.918;2024-02-15T04:46:27;27.10;;;9.98;;
42338;SDS011;27993;45.392;10.918;2024-02-15T04:48:59;23.17;;;10.20;;
42338;SDS011;27993;45.392;10.918;2024-02-15T04:51:32;15.98;;;8.68;;
42338;SDS011;27993;45.392;10.918;2024-02-15T04:54:03;19.60;;;10.23;;
42338;SDS011;27993;45.392;10.918;2024-02-15T04:56:34;19.30;;;8.65;;
42338;SDS011;27993;45.392;10.918;2024-02-15T04:59:09;19.87;;;9.00;;
42338;SDS011;27993;45.392;10.918;2024-02-15T05:01:45;20.50;;;9.35;;
42338;SDS011;27993;45.392;10.918;2024-02-15T05:04:16;19.20;;;8.40;;
42338;SDS011;27993;45.392;10.918;2024-02-15T05:06:48;29.08;;;9.98;;
42338;SDS011;27993;45.392;10.918;2024-02-15T05:09:19;23.55;;;8.25;;
42338;SDS011;27993;45.392;10.918;2024-02-15T05:11:50;35.57;;;7.93;;
42338;SDS011;27993;45.392;10.918;2024-02-15T05:14:22;15.27;;;8.80;;
42338;SDS011;27993;45.392;10.918;2024-02-15T05:16:54;15.38;;;8.50;;
42338;SDS011;27993;45.392;10.918;2024-02-15T05:19:25;19.62;;;10.35;;
42338;SDS011;27993;45.392;10.918;2024-02-15T05:21:56;21.17;;;9.57;;
42338;SDS011;27993;45.392;10.918;2024-02-15T05:24:27;25.58;;;10.05;;
42338;SDS011;27993;45.392;10.918;2024-02-15T05:26:58;20.17;;;11.10;;
42338;SDS011;27993;45.392;10.918;2024-02-15T05:29:29;24.87;;;8.82;;
42338;SDS011;27993;45.392;10.918;2024-02-15T05:32:04;29.55;;;10.02;;
42338;SDS011;27993;45.392;10.918;2024-02-15T05:34:35;17.37;;;9.35;;
42338;SDS011;27993;45.392;10.918;2024-02-15T05:37:09;17.77;;;9.30;;
42338;SDS011;27993;45.392;10.918;2024-02-15T05:39:41;32.58;;;8.75;;
42338;SDS011;27993;45.392;10.918;2024-02-15T05:42:12;31.87;;;10.13;;
42338;SDS011;27993;45.392;10.918;2024-02-15T05:44:43;22.03;;;9.13;;
42338;SDS011;27993;45.392;10.918;2024-02-15T05:47:14;19.30;;;9.53;;
42338;SDS011;27993;45.392;10.918;2024-02-15T05:49:45;24.70;;;9.48;;
42338;SDS011;27993;45.392;10.918;2024-02-15T05:54:48;13.20;;;9.00;;
42338;SDS011;27993;45.392;10.918;2024-02-15T05:57:21;17.73;;;9.77;;
42338;SDS011;27993;45.392;10.918;2024-02-15T05:59:52;16.50;;;9.40;;
42338;SDS011;27993;45.392;10.918;2024-02-15T06:02:24;22.13;;;11.25;;
42338;SDS011;27993;45.392;10.918;2024-02-15T06:04:55;29.15;;;11.18;;
42338;SDS011;27993;45.392;10.918;2024-02-15T06:07:31;18.50;;;10.20;;
42338;SDS011;27993;45.392;10.918;2024-02-15T06:10:02;20.07;;;10.83;;
42338;SDS011;27993;45.392;10.918;2024-02-15T06:12:34;22.27;;;10.73;;
42338;SDS011;27993;45.392;10.918;2024-02-15T06:15:05;25.70;;;11.68;;
42338;SDS011;27993;45.392;10.918;2024-02-15T06:17:44;24.00;;;9.68;;
42338;SDS011;27993;45.392;10.918;2024-02-15T06:20:16;16.73;;;9.73;;
42338;SDS011;27993;45.392;10.918;2024-02-15T06:22:51;17.98;;;9.77;;
42338;SDS011;27993;45.392;10.918;2024-02-15T06:25:22;23.00;;;11.77;;
42338;SDS011;27993;45.392;10.918;2024-02-15T06:27:53;31.60;;;13.10;;
42338;SDS011;27993;45.392;10.918;2024-02-15T06:30:31;33.47;;;14.13;;
42338;SDS011;27993;45.392;10.918;2024-02-15T06:33:21;22.90;;;11.38;;
42338;SDS011;27993;45.392;10.918;2024-02-15T06:36:10;23.67;;;11.85;;
42338;SDS011;27993;45.392;10.918;2024-02-15T06:39:00;25.10;;;12.18;;
42338;SDS011;27993;45.392;10.918;2024-02-15T06:41:50;24.08;;;10.32;;
42338;SDS011;27993;45.392;10.918;2024-02-15T06:44:22;30.10;;;12.68;;
42338;SDS011;27993;45.392;10.918;2024-02-15T06:46:54;30.80;;;12.00;;
42338;SDS011;27993;45.392;10.918;2024-02-15T06:49:26;18.05;;;10.48;;
42338;SDS011;27993;45.392;10.918;2024-02-15T06:51:57;19.93;;;12.23;;
42338;SDS011;27993;45.392;10.918;2024-02-15T06:54:29;20.73;;;11.98;;
42338;SDS011;27993;45.392;10.918;2024-02-15T06:57:00;20.43;;;12.47;;
42338;SDS011;27993;45.392;10.918;2024-02-15T06:59:32;26.15;;;12.60;;
42338;SDS011;27993;45.392;10.918;2024-02-15T07:04:35;27.30;;;12.37;;
42338;SDS011;27993;45.392;10.918;2024-02-15T07:07:06;25.92;;;12.77;;
42338;SDS011;27993;45.392;10.918;2024-02-15T07:09:37;23.33;;;12.02;;
42338;SDS011;27993;45.392;10.918;2024-02-15T07:12:09;23.15;;;13.45;;
42338;SDS011;27993;45.392;10.918;2024-02-15T07:14:40;28.50;;;12.85;;
42338;SDS011;27993;45.392;10.918;2024-02-15T07:17:10;29.70;;;12.40;;
42338;SDS011;27993;45.392;10.918;2024-02-15T07:19:45;22.02;;;11.60;;
42338;SDS011;27993;45.392;10.918;2024-02-15T07:22:19;27.55;;;12.18;;
42338;SDS011;27993;45.392;10.918;2024-02-15T07:24:50;21.35;;;11.43;;
42338;SDS011;27993;45.392;10.918;2024-02-15T07:27:22;29.40;;;12.90;;
42338;SDS011;27993;45.392;10.918;2024-02-15T07:29:55;22.33;;;12.20;;
42338;SDS011;27993;45.392;10.918;2024-02-15T07:32:26;23.52;;;12.35;;
42338;SDS011;27993;45.392;10.918;2024-02-15T07:34:57;31.67;;;11.73;;
42338;SDS011;27993;45.392;10.918;2024-02-15T07:37:29;19.58;;;11.70;;
42338;SDS011;27993;45.392;10.918;2024-02-15T07:40:00;25.17;;;12.60;;
42338;SDS011;27993;45.392;10.918;2024-02-15T07:42:32;23.30;;;13.07;;
42338;SDS011;27993;45.392;10.918;2024-02-15T07:45:05;25.23;;;12.70;;
42338;SDS011;27993;45.392;10.918;2024-02-15T07:47:36;29.50;;;12.00;;
42338;SDS011;27993;45.392;10.918;2024-02-15T07:50:09;37.33;;;12.90;;
42338;SDS011;27993;45.392;10.918;2024-02-15T07:52:40;21.90;;;11.88;;
42338;SDS011;27993;45.392;10.918;2024-02-15T07:55:11;25.00;;;12.90;;
42338;SDS011;27993;45.392;10.918;2024-02-15T07:57:42;27.77;;;14.30;;
42338;SDS011;27993;45.392;10.918;2024-02-15T08:00:13;34.42;;;15.95;;
42338;SDS011;27993;45.392;10.918;2024-02-15T08:02:46;34.00;;;19.27;;
42338;SDS011;27993;45.392;10.918;2024-02-15T08:05:17;39.65;;;20.05;;
42338;SDS011;27993;45.392;10.918;2024-02-15T08:07:48;26.73;;;15.10;;
42338;SDS011;27993;45.392;10.918;2024-02-15T08:10:19;29.40;;;17.10;;
42338;SDS011;27993;45.392;10.918;2024-02-15T08:12:52;43.58;;;18.27;;
42338;SDS011;27993;45.392;10.918;2024-02-15T08:15:23;43.28;;;18.37;;
42338;SDS011;27993;45.392;10.918;2024-02-15T08:20:25;25.02;;;14.65;;
42338;SDS011;27993;45.392;10.918;2024-02-15T08:23:01;32.55;;;16.00;;
42338;SDS011;27993;45.392;10.918;2024-02-15T08:25:32;39.22;;;15.80;;
42338;SDS011;27993;45.392;10.918;2024-02-15T08:28:03;26.52;;;16.80;;
42338;SDS011;27993;45.392;10.918;2024-02-15T08:30:37;28.85;;;17.40;;
42338;SDS011;27993;45.392;10.918;2024-02-15T08:33:08;31.23;;;18.05;;
42338;SDS011;27993;45.392;10.918;2024-02-15T08:35:40;27.73;;;16.75;;
42338;SDS011;27993;45.392;10.918;2024-02-15T08:38:11;24.35;;;17.23;;
42338;SDS011;27993;45.392;10.918;2024-02-15T08:40:42;34.85;;;18.42;;
42338;SDS011;27993;45.392;10.918;2024-02-15T08:43:15;33.17;;;18.17;;
42338;SDS011;27993;45.392;10.918;2024-02-15T08:50:49;26.87;;;18.40;;
42338;SDS011;27993;45.392;10.918;2024-02-15T08:53:20;28.48;;;19.48;;
42338;SDS011;27993;45.392;10.918;2024-02-15T08:55:51;28.12;;;19.10;;
42338;SDS011;27993;45.392;10.918;2024-02-15T08:58:23;31.87;;;21.05;;
42338;SDS011;27993;45.392;10.918;2024-02-15T09:03:24;33.28;;;18.35;;
42338;SDS011;27993;45.392;10.918;2024-02-15T09:05:55;34.80;;;20.77;;
42338;SDS011;27993;45.392;10.918;2024-02-15T09:08:29;41.37;;;20.02;;
42338;SDS011;27993;45.392;10.918;2024-02-15T09:11:00;31.70;;;19.92;;
42338;SDS011;27993;45.392;10.918;2024-02-15T09:16:03;30.40;;;18.87;;
42338;SDS011;27993;45.392;10.918;2024-02-15T09:18:34;36.47;;;20.80;;
42338;SDS011;27993;45.392;10.918;2024-02-15T09:21:05;35.53;;;20.55;;
42338;SDS011;27993;45.392;10.918;2024-02-15T09:23:36;35.47;;;21.83;;
42338;SDS011;27993;45.392;10.918;2024-02-15T09:26:08;33.90;;;19.92;;
42338;SDS011;27993;45.392;10.918;2024-02-15T09:28:40;35.10;;;19.40;;
42338;SDS011;27993;45.392;10.918;2024-02-15T09:31:14;31.15;;;21.08;;
42338;SDS011;27993;45.392;10.918;2024-02-15T09:33:45;33.15;;;20.48;;
42338;SDS011;27993;45.392;10.918;2024-02-15T09:36:16;31.70;;;20.75;;
42338;SDS011;27993;45.392;10.918;2024-02-15T09:38:47;30.35;;;20.65;;
42338;SDS011;27993;45.392;10.918;2024-02-15T09:41:18;34.42;;;22.30;;
42338;SDS011;27993;45.392;10.918;2024-02-15T09:43:49;37.50;;;23.67;;
42338;SDS011;27993;45.392;10.918;2024-02-15T09:46:22;42.22;;;24.45;;
42338;SDS011;27993;45.392;10.918;2024-02-15T09:48:54;30.58;;;22.10;;
42338;SDS011;27993;45.392;10.918;2024-02-15T09:51:29;35.58;;;22.83;;
42338;SDS011;27993;45.392;10.918;2024-02-15T09:54:01;30.73;;;22.67;;
42338;SDS011;27993;45.392;10.918;2024-02-15T09:56:32;33.20;;;22.75;;
42338;SDS011;27993;45.392;10.918;2024-02-15T09:59:04;42.13;;;26.77;;
42338;SDS011;27993;45.392;10.918;2024-02-15T10:01:37;38.47;;;24.00;;
42338;SDS011;27993;45.392;10.918;2024-02-15T10:04:10;31.10;;;23.58;;
42338;SDS011;27993;45.392;10.918;2024-02-15T10:06:45;32.20;;;23.17;;
42338;SDS011;27993;45.392;10.918;2024-02-15T10:09:27;43.97;;;24.55;;
42338;SDS011;27993;45.392;10.918;2024-02-15T10:12:01;40.17;;;25.17;;
42338;SDS011;27993;45.392;10.918;2024-02-15T10:14:32;43.72;;;26.55;;
42338;SDS011;27993;45.392;10.918;2024-02-15T10:17:07;39.67;;;24.50;;
42338;SDS011;27993;45.392;10.918;2024-02-15T10:19:41;35.95;;;23.73;;
42338;SDS011;27993;45.392;10.918;2024-02-15T10:22:14;37.30;;;24.50;;
42338;SDS011;27993;45.392;10.918;2024-02-15T10:24:45;33.30;;;22.15;;
42338;SDS011;27993;45.392;10.918;2024-02-15T10:27:17;38.25;;;24.73;;
42338;SDS011;27993;45.392;10.918;2024-02-15T10:29:54;37.15;;;24.73;;
42338;SDS011;27993;45.392;10.918;2024-02-15T10:32:37;41.67;;;24.90;;
42338;SDS011;27993;45.392;10.918;2024-02-15T10:35:08;40.88;;;26.52;;
42338;SDS011;27993;45.392;10.918;2024-02-15T10:37:39;40.78;;;25.98;;
42338;SDS011;27993;45.392;10.918;2024-02-15T10:42:43;39.47;;;26.20;;
42338;SDS011;27993;45.392;10.918;2024-02-15T10:45:16;44.72;;;26.58;;
42338;SDS011;27993;45.392;10.918;2024-02-15T10:47:47;38.38;;;24.73;;
42338;SDS011;27993;45.392;10.918;2024-02-15T10:52:55;41.05;;;26.00;;
42338;SDS011;27993;45.392;10.918;2024-02-15T10:55:40;42.90;;;27.45;;
42338;SDS011;27993;45.392;10.918;2024-02-15T10:58:11;39.10;;;24.70;;
42338;SDS011;27993;45.392;10.918;2024-02-15T11:00:43;45.05;;;24.02;;
42338;SDS011;27993;45.392;10.918;2024-02-15T11:03:19;38.60;;;24.63;;
42338;SDS011;27993;45.392;10.918;2024-02-15T11:05:51;41.47;;;24.50;;
42338;SDS011;27993;45.392;10.918;2024-02-15T11:08:23;39.45;;;24.92;;
42338;SDS011;27993;45.392;10.918;2024-02-15T11:10:54;40.72;;;23.45;;
42338;SDS011;27993;45.392;10.918;2024-02-15T11:13:28;38.08;;;25.10;;
42338;SDS011;27993;45.392;10.918;2024-02-15T11:16:00;38.67;;;24.37;;
42338;SDS011;27993;45.392;10.918;2024-02-15T11:18:41;35.03;;;23.33;;
42338;SDS011;27993;45.392;10.918;2024-02-15T11:21:16;39.30;;;24.00;;
42338;SDS011;27993;45.392;10.918;2024-02-15T11:23:48;30.75;;;22.23;;
42338;SDS011;27993;45.392;10.918;2024-02-15T11:29:09;35.80;;;23.90;;
42338;SDS011;27993;45.392;10.918;2024-02-15T11:31:53;39.20;;;23.52;;
42338;SDS011;27993;45.392;10.918;2024-02-15T11:34:43;36.90;;;22.35;;
42338;SDS011;27993;45.392;10.918;2024-02-15T11:40:08;38.95;;;21.65;;
42338;SDS011;27993;45.392;10.918;2024-02-15T11:42:41;35.97;;;22.30;;
42338;SDS011;27993;45.392;10.918;2024-02-15T11:45:13;45.50;;;23.67;;
42338;SDS011;27993;45.392;10.918;2024-02-15T11:47:44;42.15;;;25.95;;
42338;SDS011;27993;45.392;10.918;2024-02-15T11:50:22;40.80;;;24.95;;
42338;SDS011;27993;45.392;10.918;2024-02-15T11:53:01;40.30;;;25.62;;
42338;SDS011;27993;45.392;10.918;2024-02-15T11:55:36;46.83;;;25.27;;
42338;SDS011;27993;45.392;10.918;2024-02-15T11:58:08;41.28;;;24.30;;
42338;SDS011;27993;45.392;10.918;2024-02-15T12:03:29;48.08;;;23.12;;
42338;SDS011;27993;45.392;10.918;2024-02-15T12:06:18;37.40;;;23.62;;
42338;SDS011;27993;45.392;10.918;2024-02-15T12:09:08;37.97;;;23.70;;
42338;SDS011;27993;45.392;10.918;2024-02-15T12:11:58;48.28;;;27.27;;
42338;SDS011;27993;45.392;10.918;2024-02-15T12:14:48;40.58;;;24.65;;
42338;SDS011;27993;45.392;10.918;2024-02-15T12:17:38;42.22;;;23.10;;
42338;SDS011;27993;45.392;10.918;2024-02-15T12:20:28;39.30;;;23.12;;
42338;SDS011;27993;45.392;10.918;2024-02-15T12:22:59;47.65;;;23.45;;
42338;SDS011;27993;45.392;10.918;2024-02-15T12:25:33;38.90;;;24.10;;
42338;SDS011;27993;45.392;10.918;2024-02-15T12:28:05;43.60;;;24.60;;
42338;SDS011;27993;45.392;10.918;2024-02-15T12:30:37;42.42;;;24.15;;
42338;SDS011;27993;45.392;10.918;2024-02-15T12:33:10;39.15;;;22.87;;
42338;SDS011;27993;45.392;10.918;2024-02-15T12:35:42;39.25;;;24.12;;
42338;SDS011;27993;45.392;10.918;2024-02-15T12:38:13;46.92;;;23.67;;
42338;SDS011;27993;45.392;10.918;2024-02-15T12:40:46;39.80;;;22.60;;
42338;SDS011;27993;45.392;10.918;2024-02-15T12:43:17;46.03;;;22.15;;
42338;SDS011;27993;45.392;10.918;2024-02-15T12:45:48;51.10;;;23.55;;
42338;SDS011;27993;45.392;10.918;2024-02-15T12:48:19;48.40;;;24.83;;
42338;SDS011;27993;45.392;10.918;2024-02-15T12:50:50;39.33;;;22.80;;
42338;SDS011;27993;45.392;10.918;2024-02-15T12:53:22;44.92;;;23.75;;
42338;SDS011;27993;45.392;10.918;2024-02-15T12:58:25;39.85;;;23.48;;
42338;SDS011;27993;45.392;10.918;2024-02-15T13:00:56;36.67;;;23.55;;
42338;SDS011;27993;45.392;10.918;2024-02-15T13:03:28;41.88;;;22.02;;
42338;SDS011;27993;45.392;10.918;2024-02-15T13:05:59;38.25;;;22.20;;
42338;SDS011;27993;45.392;10.918;2024-02-15T13:08:30;41.72;;;22.73;;
42338;SDS011;27993;45.392;10.918;2024-02-15T13:11:01;48.38;;;24.80;;
42338;SDS011;27993;45.392;10.918;2024-02-15T13:13:33;43.65;;;25.30;;
42338;SDS011;27993;45.392;10.918;2024-02-15T13:16:04;40.25;;;23.05;;
42338;SDS011;27993;45.392;10.918;2024-02-15T13:18:36;46.65;;;23.02;;
42338;SDS011;27993;45.392;10.918;2024-02-15T13:21:07;49.58;;;24.65;;
42338;SDS011;27993;45.392;10.918;2024-02-15T13:23:40;54.50;;;24.40;;
42338;SDS011;27993;45.392;10.918;2024-02-15T13:26:11;46.53;;;24.33;;
42338;SDS011;27993;45.392;10.918;2024-02-15T13:28:44;46.10;;;23.75;;
42338;SDS011;27993;45.392;10.918;2024-02-15T13:31:15;42.35;;;23.67;;
42338;SDS011;27993;45.392;10.918;2024-02-15T13:33:46;46.78;;;26.08;;
42338;SDS011;27993;45.392;10.918;2024-02-15T13:36:17;48.78;;;26.98;;
42338;SDS011;27993;45.392;10.918;2024-02-15T13:38:50;47.47;;;28.20;;
42338;SDS011;27993;45.392;10.918;2024-02-15T13:43:52;48.63;;;23.87;;
42338;SDS011;27993;45.392;10.918;2024-02-15T13:46:23;35.92;;;22.20;;
42338;SDS011;27993;45.392;10.918;2024-02-15T13:48:54;45.10;;;25.88;;
42338;SDS011;27993;45.392;10.918;2024-02-15T13:51:26;50.70;;;26.98;;
42338;SDS011;27993;45.392;10.918;2024-02-15T13:53:57;45.38;;;24.65;;
42338;SDS011;27993;45.392;10.918;2024-02-15T13:56:28;48.45;;;25.62;;
42338;SDS011;27993;45.392;10.918;2024-02-15T13:58:59;46.75;;;26.35;;
42338;SDS011;27993;45.392;10.918;2024-02-15T14:01:30;43.50;;;25.48;;
42338;SDS011;27993;45.392;10.918;2024-02-15T14:04:01;45.03;;;24.80;;
42338;SDS011;27993;45.392;10.918;2024-02-15T14:06:32;37.55;;;23.10;;
42338;SDS011;27993;45.392;10.918;2024-02-15T14:09:04;38.53;;;23.75;;
42338;SDS011;27993;45.392;10.918;2024-02-15T14:11:35;40.63;;;23.92;;
42338;SDS011;27993;45.392;10.918;2024-02-15T14:14:07;40.95;;;23.98;;
42338;SDS011;27993;45.392;10.918;2024-02-15T14:16:38;50.42;;;24.42;;
42338;SDS011;27993;45.392;10.918;2024-02-15T14:19:09;45.83;;;26.27;;
42338;SDS011;27993;45.392;10.918;2024-02-15T14:21:42;48.08;;;23.77;;
42338;SDS011;27993;45.392;10.918;2024-02-15T14:24:15;47.50;;;25.20;;
42338;SDS011;27993;45.392;10.918;2024-02-15T14:26:49;44.70;;;24.85;;
42338;SDS011;27993;45.392;10.918;2024-02-15T14:29:20;47.38;;;24.73;;
42338;SDS011;27993;45.392;10.918;2024-02-15T14:31:53;46.97;;;24.50;;
42338;SDS011;27993;45.392;10.918;2024-02-15T14:34:43;47.70;;;24.17;;
42338;SDS011;27993;45.392;10.918;2024-02-15T14:37:14;44.17;;;22.60;;
42338;SDS011;27993;45.392;10.918;2024-02-15T14:39:47;42.40;;;23.35;;
42338;SDS011;27993;45.392;10.918;2024-02-15T14:42:18;40.67;;;23.75;;
42338;SDS011;27993;45.392;10.918;2024-02-15T14:44:50;41.97;;;24.40;;
42338;SDS011;27993;45.392;10.918;2024-02-15T14:47:21;44.35;;;24.45;;
42338;SDS011;27993;45.392;10.918;2024-02-15T14:49:52;48.22;;;23.40;;
42338;SDS011;27993;45.392;10.918;2024-02-15T14:52:23;45.95;;;23.15;;
42338;SDS011;27993;45.392;10.918;2024-02-15T14:54:54;44.50;;;24.73;;
42338;SDS011;27993;45.392;10.918;2024-02-15T14:57:25;45.92;;;22.77;;
42338;SDS011;27993;45.392;10.918;2024-02-15T14:59:56;56.20;;;23.45;;
42338;SDS011;27993;45.392;10.918;2024-02-15T15:02:27;36.80;;;23.33;;
42338;SDS011;27993;45.392;10.918;2024-02-15T15:04:58;44.75;;;24.35;;
42338;SDS011;27993;45.392;10.918;2024-02-15T15:07:48;43.92;;;25.08;;
42338;SDS011;27993;45.392;10.918;2024-02-15T15:10:38;50.22;;;25.50;;
42338;SDS011;27993;45.392;10.918;2024-02-15T15:13:27;38.38;;;23.85;;
42338;SDS011;27993;45.392;10.918;2024-02-15T15:15:59;38.35;;;20.90;;
42338;SDS011;27993;45.392;10.918;2024-02-15T15:21:05;38.65;;;23.45;;
42338;SDS011;27993;45.392;10.918;2024-02-15T15:23:36;42.05;;;21.25;;
42338;SDS011;27993;45.392;10.918;2024-02-15T15:26:07;40.12;;;22.05;;
42338;SDS011;27993;45.392;10.918;2024-02-15T15:28:41;45.50;;;23.83;;
42338;SDS011;27993;45.392;10.918;2024-02-15T15:31:13;55.95;;;22.23;;